createdAt,value
2017-03-06T00:00:27.831Z,0
2017-03-06T00:01:08.580Z,0
2017-03-06T00:01:49.240Z,0
2017-03-06T00:02:29.891Z,0
2017-03-06T00:03:10.546Z,0
2017-03-06T00:03:51.201Z,0
2017-03-06T00:04:31.871Z,0
2017-03-06T00:05:12.604Z,0
2017-03-06T00:05:53.249Z,0
2017-03-06T00:06:34.022Z,0
2017-03-06T00:07:14.773Z,0
2017-03-06T00:07:55.417Z,0
2017-03-06T00:08:36.079Z,0
2017-03-06T00:09:16.884Z,0
2017-03-06T00:09:57.588Z,0
2017-03-06T00:10:38.345Z,0
2017-03-06T00:11:19.000Z,0
2017-03-06T00:11:59.677Z,0
2017-03-06T00:12:40.297Z,0
2017-03-06T00:13:20.965Z,0
2017-03-06T00:14:01.606Z,0
2017-03-06T00:14:42.394Z,0
2017-03-06T00:15:23.118Z,0
2017-03-06T00:16:04.787Z,0
2017-03-06T00:16:45.474Z,0
2017-03-06T00:17:27.129Z,0
2017-03-06T00:18:07.707Z,0
2017-03-06T00:18:49.427Z,0
2017-03-06T00:19:30.118Z,0
2017-03-06T00:20:10.775Z,0
2017-03-06T00:20:51.349Z,0
2017-03-06T00:21:32.013Z,0
2017-03-06T00:22:12.734Z,0
2017-03-06T00:22:53.367Z,0
2017-03-06T00:23:33.954Z,0
2017-03-06T00:24:14.695Z,0
2017-03-06T00:24:55.536Z,0
2017-03-06T00:25:36.094Z,0
2017-03-06T00:26:16.720Z,0
2017-03-06T00:26:57.400Z,0
2017-03-06T00:27:37.959Z,0
2017-03-06T00:28:18.598Z,0
2017-03-06T00:28:59.256Z,0
2017-03-06T00:29:39.937Z,0
2017-03-06T00:30:21.565Z,0
2017-03-06T00:31:02.231Z,0
2017-03-06T00:31:42.877Z,0
2017-03-06T00:32:24.573Z,0
2017-03-06T00:33:05.215Z,0
2017-03-06T00:33:45.793Z,0
2017-03-06T00:34:26.510Z,0
2017-03-06T00:35:07.181Z,0
2017-03-06T00:35:47.764Z,0
2017-03-06T00:36:28.502Z,0
2017-03-06T00:37:10.167Z,0
2017-03-06T00:37:50.816Z,0
2017-03-06T00:38:31.371Z,0
2017-03-06T00:39:12.089Z,0
2017-03-06T00:39:52.785Z,0
2017-03-06T00:40:33.532Z,0
2017-03-06T00:41:14.099Z,0
2017-03-06T00:41:54.768Z,0
2017-03-06T00:42:35.501Z,0
2017-03-06T00:43:16.242Z,0
2017-03-06T00:43:57.913Z,0
2017-03-06T00:44:38.676Z,0
2017-03-06T00:45:19.326Z,0
2017-03-06T00:45:59.974Z,0
2017-03-06T00:46:40.743Z,0
2017-03-06T00:47:21.391Z,0
2017-03-06T00:48:01.946Z,0
2017-03-06T00:48:42.631Z,0
2017-03-06T00:49:23.346Z,0
2017-03-06T00:50:03.995Z,0
2017-03-06T00:50:44.575Z,0
2017-03-06T00:51:25.265Z,0
2017-03-06T00:52:06.041Z,0
2017-03-06T00:52:46.714Z,0
2017-03-06T00:53:27.313Z,0
2017-03-06T00:54:07.989Z,0
2017-03-06T00:54:48.679Z,0
2017-03-06T00:55:29.435Z,0
2017-03-06T00:56:10.006Z,0
2017-03-06T00:56:50.691Z,0
2017-03-06T00:57:31.406Z,0
2017-03-06T00:58:12.145Z,0
2017-03-06T00:58:52.700Z,0
2017-03-06T00:59:33.353Z,0
2017-03-06T01:00:14.003Z,0
2017-03-06T01:00:54.597Z,0
2017-03-06T01:01:36.319Z,0
2017-03-06T01:02:16.983Z,0
2017-03-06T01:02:57.577Z,0
2017-03-06T01:03:38.289Z,0
2017-03-06T01:04:18.949Z,0
2017-03-06T01:04:59.491Z,0
2017-03-06T01:05:40.147Z,0
2017-03-06T01:06:20.798Z,0
2017-03-06T01:07:01.368Z,0
2017-03-06T01:07:43.138Z,0
2017-03-06T01:08:23.877Z,0
2017-03-06T01:09:04.440Z,0
2017-03-06T01:09:45.146Z,0
2017-03-06T01:10:25.840Z,0
2017-03-06T01:11:06.491Z,0
2017-03-06T01:11:47.047Z,0
2017-03-06T01:12:27.786Z,0
2017-03-06T01:13:08.454Z,0
2017-03-06T01:13:49.218Z,0
2017-03-06T01:14:29.989Z,0
2017-03-06T01:15:10.721Z,0
2017-03-06T01:15:51.378Z,0
2017-03-06T01:16:32.126Z,0
2017-03-06T01:17:12.797Z,0
2017-03-06T01:17:53.546Z,0
2017-03-06T01:18:34.292Z,0
2017-03-06T01:19:14.944Z,0
2017-03-06T01:19:55.599Z,0
2017-03-06T01:20:36.248Z,0
2017-03-06T01:21:16.909Z,0
2017-03-06T01:21:57.550Z,0
2017-03-06T01:22:38.212Z,0
2017-03-06T01:23:18.781Z,0
2017-03-06T01:23:59.473Z,0
2017-03-06T01:24:42.123Z,0
2017-03-06T01:25:23.794Z,0
2017-03-06T01:26:04.364Z,0
2017-03-06T01:26:47.089Z,0
2017-03-06T01:27:29.738Z,0
2017-03-06T01:28:10.391Z,0
2017-03-06T01:28:51.059Z,0
2017-03-06T01:29:31.702Z,0
2017-03-06T01:30:12.454Z,0
2017-03-06T01:30:53.111Z,0
2017-03-06T01:31:33.758Z,0
2017-03-06T01:32:14.409Z,0
2017-03-06T01:32:54.971Z,0
2017-03-06T01:33:36.655Z,0
2017-03-06T01:34:18.314Z,0
2017-03-06T01:34:58.886Z,0
2017-03-06T01:35:39.623Z,0
2017-03-06T01:36:20.276Z,0
2017-03-06T01:37:00.845Z,0
2017-03-06T01:37:41.579Z,0
2017-03-06T01:38:22.243Z,0
2017-03-06T01:39:02.808Z,0
2017-03-06T01:39:43.501Z,0
2017-03-06T01:40:29.114Z,0
2017-03-06T01:41:09.762Z,0
2017-03-06T01:41:50.312Z,0
2017-03-06T01:42:32.047Z,0
2017-03-06T01:43:12.760Z,0
2017-03-06T01:43:53.324Z,0
2017-03-06T01:44:34.051Z,0
2017-03-06T01:45:14.815Z,0
2017-03-06T01:45:55.376Z,0
2017-03-06T01:46:37.021Z,0
2017-03-06T01:47:17.785Z,0
2017-03-06T01:47:58.339Z,0
2017-03-06T01:48:41.038Z,0
2017-03-06T01:49:22.741Z,0
2017-03-06T01:50:04.494Z,0
2017-03-06T01:50:45.269Z,0
2017-03-06T01:51:26.938Z,0
2017-03-06T01:52:07.608Z,0
2017-03-06T01:52:48.342Z,0
2017-03-06T01:53:29.100Z,0
2017-03-06T01:54:09.845Z,0
2017-03-06T01:54:50.498Z,0
2017-03-06T01:55:32.278Z,0
2017-03-06T01:56:13.032Z,0
2017-03-06T01:56:54.727Z,0
2017-03-06T01:57:35.462Z,0
2017-03-06T01:58:16.032Z,0
2017-03-06T01:58:57.753Z,0
2017-03-06T01:59:38.448Z,0
2017-03-06T02:00:20.129Z,0
2017-03-06T02:01:00.734Z,0
2017-03-06T02:01:43.455Z,0
2017-03-06T02:02:24.138Z,0
2017-03-06T02:03:04.812Z,0
2017-03-06T02:03:45.383Z,0
2017-03-06T02:04:26.095Z,0
2017-03-06T02:05:06.739Z,0
2017-03-06T02:05:47.297Z,0
2017-03-06T02:06:27.962Z,0
2017-03-06T02:07:10.664Z,0
2017-03-06T02:07:51.218Z,0
2017-03-06T02:08:32.071Z,0
2017-03-06T02:09:12.714Z,0
2017-03-06T02:09:53.265Z,0
2017-03-06T02:10:33.982Z,0
2017-03-06T02:11:14.690Z,0
2017-03-06T02:11:55.438Z,0
2017-03-06T02:12:36.025Z,0
2017-03-06T02:13:16.695Z,0
2017-03-06T02:13:57.431Z,0
2017-03-06T02:14:38.115Z,0
2017-03-06T02:15:18.842Z,0
2017-03-06T02:15:59.614Z,0
2017-03-06T02:16:41.379Z,0
2017-03-06T02:17:22.135Z,0
2017-03-06T02:18:03.816Z,0
2017-03-06T02:18:45.483Z,0
2017-03-06T02:19:27.168Z,0
2017-03-06T02:20:07.816Z,0
2017-03-06T02:20:48.482Z,0
2017-03-06T02:21:29.242Z,0
2017-03-06T02:22:09.993Z,0
2017-03-06T02:22:51.660Z,0
2017-03-06T02:23:33.343Z,0
2017-03-06T02:24:15.014Z,0
2017-03-06T02:24:55.746Z,0
2017-03-06T02:25:36.416Z,0
2017-03-06T02:26:17.071Z,0
2017-03-06T02:26:57.823Z,0
2017-03-06T02:27:38.525Z,0
2017-03-06T02:28:19.233Z,0
2017-03-06T02:29:00.985Z,0
2017-03-06T02:29:41.532Z,0
2017-03-06T02:30:22.277Z,0
2017-03-06T02:31:03.037Z,0
2017-03-06T02:31:43.592Z,0
2017-03-06T02:32:24.246Z,0
2017-03-06T02:33:04.895Z,0
2017-03-06T02:33:45.640Z,0
2017-03-06T02:34:26.292Z,0
2017-03-06T02:35:07.058Z,0
2017-03-06T02:35:47.808Z,0
2017-03-06T02:36:28.559Z,0
2017-03-06T02:37:09.319Z,0
2017-03-06T02:37:50.068Z,0
2017-03-06T02:38:30.631Z,0
2017-03-06T02:39:11.389Z,0
2017-03-06T02:39:52.135Z,0
2017-03-06T02:40:32.699Z,0
2017-03-06T02:41:13.443Z,0
2017-03-06T02:41:54.092Z,0
2017-03-06T02:42:34.686Z,0
2017-03-06T02:43:15.415Z,0
2017-03-06T02:43:56.160Z,0
2017-03-06T02:44:36.716Z,0
2017-03-06T02:45:18.447Z,0
2017-03-06T02:45:59.136Z,0
2017-03-06T02:46:40.921Z,0
2017-03-06T02:47:21.475Z,0
2017-03-06T02:48:02.166Z,0
2017-03-06T02:48:42.875Z,0
2017-03-06T02:49:24.652Z,0
2017-03-06T02:50:05.419Z,0
2017-03-06T02:50:47.188Z,0
2017-03-06T02:51:27.848Z,0
2017-03-06T02:52:08.503Z,0
2017-03-06T02:52:50.176Z,0
2017-03-06T02:53:30.723Z,0
2017-03-06T02:54:11.465Z,0
2017-03-06T02:54:52.242Z,0
2017-03-06T02:55:32.820Z,0
2017-03-06T02:56:13.490Z,0
2017-03-06T02:56:54.088Z,0
2017-03-06T02:57:34.647Z,0
2017-03-06T02:58:15.379Z,0
2017-03-06T02:58:56.038Z,0
2017-03-06T02:59:37.737Z,0
2017-03-06T03:00:18.282Z,0
2017-03-06T03:00:58.986Z,0
2017-03-06T03:01:39.693Z,0
2017-03-06T03:02:20.452Z,0
2017-03-06T03:03:01.201Z,0
2017-03-06T03:03:41.955Z,0
2017-03-06T03:04:22.710Z,0
2017-03-06T03:05:03.466Z,0
2017-03-06T03:05:44.117Z,0
2017-03-06T03:06:24.868Z,0
2017-03-06T03:07:05.631Z,0
2017-03-06T03:07:46.383Z,0
2017-03-06T03:08:27.144Z,0
2017-03-06T03:09:07.889Z,0
2017-03-06T03:09:48.644Z,0
2017-03-06T03:10:29.406Z,0
2017-03-06T03:11:10.157Z,0
2017-03-06T03:11:50.926Z,0
2017-03-06T03:12:31.669Z,0
2017-03-06T03:13:12.425Z,0
2017-03-06T03:13:54.108Z,0
2017-03-06T03:14:34.872Z,0
2017-03-06T03:15:16.636Z,0
2017-03-06T03:15:57.387Z,0
2017-03-06T03:16:38.251Z,0
2017-03-06T03:17:19.005Z,0
2017-03-06T03:17:59.584Z,0
2017-03-06T03:18:40.151Z,0
2017-03-06T03:19:20.759Z,0
2017-03-06T03:20:01.615Z,0
2017-03-06T03:20:42.166Z,0
2017-03-06T03:21:22.874Z,0
2017-03-06T03:22:03.557Z,0
2017-03-06T03:22:44.330Z,0
2017-03-06T03:23:24.908Z,0
2017-03-06T03:24:05.662Z,0
2017-03-06T03:24:46.394Z,0
2017-03-06T03:25:26.971Z,0
2017-03-06T03:26:08.315Z,0
2017-03-06T03:26:49.070Z,0
2017-03-06T03:27:29.633Z,0
2017-03-06T03:28:10.375Z,0
2017-03-06T03:28:51.142Z,0
2017-03-06T03:29:31.709Z,0
2017-03-06T03:30:12.389Z,0
2017-03-06T03:30:53.104Z,0
2017-03-06T03:31:33.843Z,0
2017-03-06T03:32:14.390Z,0
2017-03-06T03:32:56.136Z,0
2017-03-06T03:33:36.777Z,0
2017-03-06T03:34:17.422Z,0
2017-03-06T03:34:58.075Z,0
2017-03-06T03:35:38.729Z,0
2017-03-06T03:36:19.386Z,0
2017-03-06T03:37:00.045Z,0
2017-03-06T03:37:40.689Z,0
2017-03-06T03:38:21.240Z,0
2017-03-06T03:39:01.947Z,0
2017-03-06T03:39:42.650Z,0
2017-03-06T03:40:23.315Z,0
2017-03-06T03:41:03.901Z,0
2017-03-06T03:41:44.552Z,0
2017-03-06T03:42:25.254Z,0
2017-03-06T03:43:05.910Z,0
2017-03-06T03:43:46.465Z,0
2017-03-06T03:44:27.170Z,0
2017-03-06T03:45:07.897Z,0
2017-03-06T03:45:48.521Z,0
2017-03-06T03:46:29.082Z,0
2017-03-06T03:47:09.779Z,0
2017-03-06T03:47:50.483Z,0
2017-03-06T03:48:31.144Z,0
2017-03-06T03:49:11.713Z,0
2017-03-06T03:49:52.393Z,0
2017-03-06T03:50:33.088Z,0
2017-03-06T03:51:13.747Z,0
2017-03-06T03:51:54.323Z,0
2017-03-06T03:52:35.084Z,0
2017-03-06T03:53:15.732Z,0
2017-03-06T03:53:56.360Z,0
2017-03-06T03:54:36.913Z,0
2017-03-06T03:55:17.557Z,0
2017-03-06T03:55:58.213Z,0
2017-03-06T03:56:38.768Z,0
2017-03-06T03:57:19.414Z,0
2017-03-06T03:58:00.087Z,0
2017-03-06T03:58:40.649Z,0
2017-03-06T03:59:21.354Z,0
2017-03-06T04:00:02.022Z,0
2017-03-06T04:00:42.742Z,0
2017-03-06T04:01:23.298Z,0
2017-03-06T04:02:03.934Z,0
2017-03-06T04:02:44.639Z,0
2017-03-06T04:03:25.295Z,0
2017-03-06T04:04:05.949Z,0
2017-03-06T04:04:46.601Z,0
2017-03-06T04:05:27.258Z,0
2017-03-06T04:06:08.929Z,0
2017-03-06T04:06:49.555Z,0
2017-03-06T04:07:30.241Z,0
2017-03-06T04:08:10.889Z,0
2017-03-06T04:08:51.464Z,0
2017-03-06T04:09:32.143Z,0
2017-03-06T04:10:12.844Z,0
2017-03-06T04:10:53.502Z,0
2017-03-06T04:11:34.046Z,0
2017-03-06T04:12:14.754Z,0
2017-03-06T04:12:55.471Z,0
2017-03-06T04:13:36.117Z,0
2017-03-06T04:14:16.841Z,0
2017-03-06T04:14:58.576Z,0
2017-03-06T04:15:39.204Z,0
2017-03-06T04:16:19.873Z,0
2017-03-06T04:17:00.528Z,0
2017-03-06T04:17:41.153Z,0
2017-03-06T04:18:21.942Z,0
2017-03-06T04:19:02.562Z,0
2017-03-06T04:19:43.217Z,0
2017-03-06T04:20:23.874Z,0
2017-03-06T04:21:04.526Z,0
2017-03-06T04:21:45.178Z,0
2017-03-06T04:22:25.833Z,0
2017-03-06T04:23:06.504Z,0
2017-03-06T04:23:47.030Z,0
2017-03-06T04:24:27.763Z,0
2017-03-06T04:25:08.443Z,0
2017-03-06T04:25:49.093Z,0
2017-03-06T04:26:29.682Z,0
2017-03-06T04:27:10.333Z,0
2017-03-06T04:27:51.053Z,0
2017-03-06T04:28:31.704Z,0
2017-03-06T04:29:12.285Z,0
2017-03-06T04:29:52.959Z,0
2017-03-06T04:30:33.659Z,0
2017-03-06T04:31:14.255Z,0
2017-03-06T04:31:54.841Z,0
2017-03-06T04:32:35.442Z,0
2017-03-06T04:33:16.068Z,0
2017-03-06T04:33:56.723Z,0
2017-03-06T04:34:37.400Z,0
2017-03-06T04:35:18.147Z,0
2017-03-06T04:35:58.802Z,0
2017-03-06T04:36:39.460Z,0
2017-03-06T04:37:20.111Z,0
2017-03-06T04:38:00.831Z,0
2017-03-06T04:38:41.493Z,0
2017-03-06T04:39:22.175Z,0
2017-03-06T04:40:02.823Z,0
2017-03-06T04:40:43.454Z,0
2017-03-06T04:41:24.133Z,0
2017-03-06T04:42:04.856Z,0
2017-03-06T04:42:45.537Z,0
2017-03-06T04:43:26.167Z,0
2017-03-06T04:44:06.847Z,0
2017-03-06T04:44:47.413Z,0
2017-03-06T04:45:30.125Z,0
2017-03-06T04:46:10.751Z,0
2017-03-06T04:46:51.396Z,0
2017-03-06T04:47:31.953Z,0
2017-03-06T04:48:12.674Z,0
2017-03-06T04:48:53.340Z,0
2017-03-06T04:49:34.004Z,0
2017-03-06T04:50:14.653Z,0
2017-03-06T04:50:56.329Z,0
2017-03-06T04:51:36.986Z,0
2017-03-06T04:52:17.569Z,0
2017-03-06T04:53:00.259Z,0
2017-03-06T04:53:40.829Z,0
2017-03-06T04:54:22.496Z,0
2017-03-06T04:55:03.195Z,0
2017-03-06T04:55:44.899Z,0
2017-03-06T04:56:25.478Z,0
2017-03-06T04:57:06.171Z,0
2017-03-06T04:57:46.849Z,0
2017-03-06T04:58:27.504Z,0
2017-03-06T04:59:08.093Z,0
2017-03-06T04:59:48.749Z,0
2017-03-06T05:00:29.453Z,0
2017-03-06T05:01:10.123Z,0
2017-03-06T05:01:50.681Z,0
2017-03-06T05:02:31.380Z,0
2017-03-06T05:03:12.064Z,0
2017-03-06T05:03:52.736Z,0
2017-03-06T05:04:33.406Z,0
2017-03-06T05:05:14.048Z,0
2017-03-06T05:05:54.700Z,0
2017-03-06T05:06:35.357Z,0
2017-03-06T05:07:16.009Z,0
2017-03-06T05:07:56.655Z,0
2017-03-06T05:08:37.201Z,0
2017-03-06T05:09:17.840Z,0
2017-03-06T05:09:58.501Z,0
2017-03-06T05:10:39.064Z,0
2017-03-06T05:11:19.701Z,0
2017-03-06T05:12:00.375Z,0
2017-03-06T05:12:40.937Z,0
2017-03-06T05:13:21.677Z,0
2017-03-06T05:14:02.316Z,0
2017-03-06T05:14:42.878Z,0
2017-03-06T05:15:23.572Z,0
2017-03-06T05:16:04.289Z,0
2017-03-06T05:16:44.946Z,0
2017-03-06T05:17:25.522Z,0
2017-03-06T05:18:06.166Z,0
2017-03-06T05:18:46.931Z,0
2017-03-06T05:19:27.655Z,0
2017-03-06T05:20:08.225Z,0
2017-03-06T05:20:48.913Z,0
2017-03-06T05:21:29.604Z,0
2017-03-06T05:22:10.353Z,0
2017-03-06T05:22:50.919Z,0
2017-03-06T05:23:31.631Z,0
2017-03-06T05:24:13.351Z,0
2017-03-06T05:24:53.995Z,0
2017-03-06T05:25:34.652Z,0
2017-03-06T05:26:15.310Z,0
2017-03-06T05:26:56.046Z,0
2017-03-06T05:27:36.689Z,0
2017-03-06T05:28:17.338Z,0
2017-03-06T05:28:58.024Z,0
2017-03-06T05:29:38.676Z,0
2017-03-06T05:30:19.328Z,0
2017-03-06T05:30:59.982Z,0
2017-03-06T05:31:40.641Z,0
2017-03-06T05:32:21.391Z,0
2017-03-06T05:33:02.153Z,0
2017-03-06T05:33:42.801Z,0
2017-03-06T05:34:23.464Z,0
2017-03-06T05:35:04.200Z,0
2017-03-06T05:35:44.858Z,0
2017-03-06T05:36:25.518Z,0
2017-03-06T05:37:06.262Z,0
2017-03-06T05:37:46.824Z,0
2017-03-06T05:38:27.407Z,4
2017-03-06T05:39:08.128Z,0
2017-03-06T05:39:48.867Z,4
2017-03-06T05:40:29.524Z,4
2017-03-06T05:41:10.119Z,4
2017-03-06T05:41:50.769Z,4
2017-03-06T05:42:31.485Z,4
2017-03-06T05:43:12.143Z,4
2017-03-06T05:43:52.700Z,4
2017-03-06T05:44:33.394Z,0
2017-03-06T05:45:14.124Z,4
2017-03-06T05:45:54.857Z,4
2017-03-06T05:46:35.401Z,4
2017-03-06T05:47:16.117Z,4
2017-03-06T05:47:56.801Z,4
2017-03-06T05:48:37.496Z,4
2017-03-06T05:49:18.082Z,8
2017-03-06T05:49:58.829Z,8
2017-03-06T05:50:39.547Z,4
2017-03-06T05:51:20.279Z,8
2017-03-06T05:52:00.980Z,8
2017-03-06T05:52:41.636Z,8
2017-03-06T05:53:22.339Z,8
2017-03-06T05:54:03.002Z,8
2017-03-06T05:54:43.568Z,8
2017-03-06T05:55:24.305Z,8
2017-03-06T05:56:05.063Z,12
2017-03-06T05:56:45.667Z,12
2017-03-06T05:57:26.360Z,12
2017-03-06T05:58:07.007Z,12
2017-03-06T05:58:47.592Z,16
2017-03-06T05:59:28.302Z,16
2017-03-06T06:00:08.972Z,16
2017-03-06T06:00:49.544Z,16
2017-03-06T06:01:30.275Z,20
2017-03-06T06:02:10.928Z,20
2017-03-06T06:02:51.489Z,20
2017-03-06T06:03:32.233Z,24
2017-03-06T06:04:12.992Z,24
2017-03-06T06:04:53.566Z,28
2017-03-06T06:05:34.229Z,28
2017-03-06T06:06:14.959Z,32
2017-03-06T06:06:55.715Z,36
2017-03-06T06:07:36.263Z,36
2017-03-06T06:08:17.054Z,40
2017-03-06T06:08:57.774Z,36
2017-03-06T06:09:38.536Z,40
2017-03-06T06:10:19.286Z,40
2017-03-06T06:11:00.039Z,40
2017-03-06T06:11:40.686Z,44
2017-03-06T06:12:22.365Z,48
2017-03-06T06:13:03.036Z,52
2017-03-06T06:13:43.895Z,56
2017-03-06T06:14:24.760Z,56
2017-03-06T06:15:05.498Z,56
2017-03-06T06:15:46.160Z,60
2017-03-06T06:16:26.909Z,64
2017-03-06T06:17:07.660Z,68
2017-03-06T06:17:48.305Z,72
2017-03-06T06:18:28.961Z,76
2017-03-06T06:19:09.527Z,80
2017-03-06T06:19:50.349Z,84
2017-03-06T06:20:33.063Z,88
2017-03-06T06:21:13.727Z,92
2017-03-06T06:21:54.333Z,92
2017-03-06T06:22:34.986Z,96
2017-03-06T06:23:15.662Z,104
2017-03-06T06:23:56.326Z,116
2017-03-06T06:24:36.910Z,120
2017-03-06T06:25:17.735Z,124
2017-03-06T06:25:58.392Z,124
2017-03-06T06:26:38.972Z,124
2017-03-06T06:27:19.620Z,128
2017-03-06T06:28:00.351Z,128
2017-03-06T06:28:40.925Z,124
2017-03-06T06:29:21.661Z,116
2017-03-06T06:30:02.318Z,108
2017-03-06T06:30:42.879Z,104
2017-03-06T06:31:23.635Z,100
2017-03-06T06:32:04.291Z,100
2017-03-06T06:32:44.849Z,96
2017-03-06T06:33:25.580Z,92
2017-03-06T06:34:06.254Z,92
2017-03-06T06:34:46.819Z,92
2017-03-06T06:35:27.483Z,96
2017-03-06T06:36:08.187Z,100
2017-03-06T06:36:48.987Z,104
2017-03-06T06:37:29.538Z,104
2017-03-06T06:38:10.197Z,112
2017-03-06T06:38:51.922Z,116
2017-03-06T06:39:32.689Z,120
2017-03-06T06:40:13.439Z,120
2017-03-06T06:40:54.195Z,120
2017-03-06T06:41:34.924Z,120
2017-03-06T06:42:17.653Z,124
2017-03-06T06:42:58.398Z,128
2017-03-06T06:43:39.114Z,132
2017-03-06T06:44:19.802Z,136
2017-03-06T06:45:00.457Z,136
2017-03-06T06:45:41.164Z,144
2017-03-06T06:46:21.918Z,152
2017-03-06T06:47:08.183Z,160
2017-03-06T06:47:48.921Z,168
2017-03-06T06:48:30.717Z,184
2017-03-06T06:49:12.480Z,196
2017-03-06T06:49:53.048Z,208
2017-03-06T06:50:38.681Z,224
2017-03-06T06:51:20.367Z,244
2017-03-06T06:52:00.912Z,276
2017-03-06T06:52:42.589Z,288
2017-03-06T06:53:23.359Z,288
2017-03-06T06:54:03.888Z,288
2017-03-06T06:54:45.635Z,292
2017-03-06T06:55:26.324Z,300
2017-03-06T06:56:07.101Z,328
2017-03-06T06:56:47.649Z,344
2017-03-06T06:57:30.396Z,352
2017-03-06T06:58:12.139Z,356
2017-03-06T06:58:52.896Z,372
2017-03-06T06:59:33.447Z,384
2017-03-06T07:00:14.168Z,392
2017-03-06T07:00:55.871Z,404
2017-03-06T07:01:36.533Z,432
2017-03-06T07:02:17.102Z,440
2017-03-06T07:02:57.793Z,456
2017-03-06T07:03:38.466Z,476
2017-03-06T07:04:19.132Z,488
2017-03-06T07:04:59.891Z,488
2017-03-06T07:05:40.535Z,492
2017-03-06T07:06:22.206Z,496
2017-03-06T07:07:02.865Z,516
2017-03-06T07:07:43.619Z,544
2017-03-06T07:08:24.297Z,596
2017-03-06T07:09:05.026Z,664
2017-03-06T07:09:45.690Z,676
2017-03-06T07:10:26.439Z,704
2017-03-06T07:11:07.191Z,732
2017-03-06T07:11:47.939Z,768
2017-03-06T07:12:28.607Z,808
2017-03-06T07:13:09.358Z,844
2017-03-06T07:13:49.906Z,872
2017-03-06T07:14:30.622Z,880
2017-03-06T07:15:11.322Z,880
2017-03-06T07:15:52.082Z,892
2017-03-06T07:16:32.654Z,992
2017-03-06T07:17:13.327Z,1100
2017-03-06T07:17:54.028Z,1156
2017-03-06T07:18:34.783Z,1240
2017-03-06T07:19:15.444Z,1312
2017-03-06T07:19:56.093Z,1420
2017-03-06T07:20:36.850Z,1508
2017-03-06T07:21:17.593Z,1580
2017-03-06T07:21:58.366Z,1628
2017-03-06T07:22:39.135Z,1604
2017-03-06T07:23:19.890Z,1612
2017-03-06T07:24:00.656Z,1620
2017-03-06T07:24:41.393Z,1612
2017-03-06T07:25:22.151Z,1632
2017-03-06T07:26:02.902Z,1636
2017-03-06T07:26:43.648Z,1616
2017-03-06T07:27:24.395Z,1600
2017-03-06T07:28:05.065Z,1596
2017-03-06T07:28:45.824Z,1688
2017-03-06T07:29:26.596Z,1820
2017-03-06T07:30:07.315Z,1896
2017-03-06T07:30:48.076Z,1956
2017-03-06T07:31:28.844Z,2036
2017-03-06T07:32:09.595Z,2100
2017-03-06T07:32:50.335Z,2120
2017-03-06T07:33:31.099Z,2132
2017-03-06T07:34:12.893Z,2204
2017-03-06T07:34:53.637Z,2240
2017-03-06T07:35:35.197Z,2256
2017-03-06T07:36:15.991Z,2268
2017-03-06T07:36:56.735Z,2252
2017-03-06T07:37:37.592Z,2316
2017-03-06T07:38:18.341Z,2268
2017-03-06T07:38:59.086Z,2208
2017-03-06T07:39:39.836Z,2152
2017-03-06T07:40:20.603Z,2120
2017-03-06T07:41:01.349Z,2060
2017-03-06T07:41:42.117Z,2024
2017-03-06T07:42:23.899Z,2000
2017-03-06T07:43:05.589Z,1892
2017-03-06T07:43:47.343Z,1812
2017-03-06T07:44:28.138Z,1844
2017-03-06T07:45:08.952Z,1960
2017-03-06T07:45:49.505Z,2120
2017-03-06T07:46:30.269Z,2212
2017-03-06T07:47:11.014Z,2264
2017-03-06T07:47:51.776Z,2312
2017-03-06T07:48:32.529Z,2356
2017-03-06T07:49:14.302Z,2400
2017-03-06T07:49:55.054Z,2460
2017-03-06T07:50:35.715Z,2596
2017-03-06T07:51:16.274Z,2632
2017-03-06T07:51:56.918Z,2544
2017-03-06T07:52:37.563Z,2456
2017-03-06T07:53:18.123Z,2364
2017-03-06T07:53:58.678Z,2296
2017-03-06T07:54:39.304Z,2224
2017-03-06T07:55:19.907Z,2216
2017-03-06T07:56:00.446Z,2188
2017-03-06T07:56:41.077Z,2148
2017-03-06T07:57:21.733Z,2116
2017-03-06T07:58:02.312Z,2044
2017-03-06T07:58:42.923Z,1964
2017-03-06T07:59:23.575Z,1976
2017-03-06T08:00:04.239Z,2080
2017-03-06T08:00:44.907Z,2152
2017-03-06T08:01:25.550Z,2296
2017-03-06T08:02:06.189Z,2472
2017-03-06T08:02:46.867Z,2548
2017-03-06T08:03:27.530Z,2612
2017-03-06T08:04:08.157Z,2612
2017-03-06T08:04:48.724Z,2624
2017-03-06T08:05:29.306Z,2672
2017-03-06T08:06:09.937Z,2704
2017-03-06T08:06:50.575Z,2804
2017-03-06T08:07:31.140Z,2800
2017-03-06T08:08:11.713Z,2860
2017-03-06T08:08:52.320Z,2904
2017-03-06T08:09:32.964Z,2968
2017-03-06T08:10:13.521Z,3060
2017-03-06T08:10:54.166Z,3140
2017-03-06T08:11:34.804Z,3216
2017-03-06T08:12:15.466Z,3276
2017-03-06T08:12:56.048Z,3332
2017-03-06T08:13:36.670Z,3396
2017-03-06T08:14:17.331Z,3468
2017-03-06T08:14:57.991Z,3480
2017-03-06T08:15:38.636Z,3520
2017-03-06T08:16:19.293Z,3540
2017-03-06T08:17:00.967Z,3536
2017-03-06T08:17:41.603Z,3520
2017-03-06T08:18:22.278Z,3524
2017-03-06T08:19:02.919Z,3536
2017-03-06T08:19:43.582Z,3564
2017-03-06T08:20:24.221Z,3620
2017-03-06T08:21:04.895Z,3696
2017-03-06T08:21:45.536Z,3772
2017-03-06T08:22:26.216Z,3888
2017-03-06T08:23:06.825Z,4172
2017-03-06T08:23:47.478Z,4348
2017-03-06T08:24:28.142Z,4716
2017-03-06T08:25:08.798Z,5124
2017-03-06T08:25:49.457Z,5368
2017-03-06T08:26:30.159Z,5772
2017-03-06T08:27:10.770Z,6032
2017-03-06T08:27:51.423Z,6144
2017-03-06T08:28:32.061Z,6412
2017-03-06T08:29:12.723Z,6728
2017-03-06T08:29:53.386Z,6788
2017-03-06T08:30:34.020Z,7388
2017-03-06T08:31:14.686Z,7624
2017-03-06T08:31:55.325Z,8172
2017-03-06T08:32:35.978Z,8592
2017-03-06T08:33:16.636Z,8740
2017-03-06T08:33:57.227Z,8436
2017-03-06T08:34:37.885Z,8412
2017-03-06T08:35:18.480Z,8300
2017-03-06T08:36:00.061Z,7768
2017-03-06T08:36:40.640Z,7640
2017-03-06T08:37:21.347Z,7224
2017-03-06T08:38:01.914Z,7252
2017-03-06T08:38:42.571Z,6912
2017-03-06T08:39:23.114Z,6472
2017-03-06T08:40:03.826Z,6344
2017-03-06T08:40:44.441Z,6092
2017-03-06T08:41:25.000Z,5980
2017-03-06T08:42:05.636Z,5780
2017-03-06T08:42:46.294Z,5884
2017-03-06T08:43:26.856Z,5508
2017-03-06T08:44:07.549Z,5140
2017-03-06T08:44:48.241Z,4864
2017-03-06T08:45:28.802Z,4720
2017-03-06T08:46:09.410Z,4884
2017-03-06T08:46:50.021Z,5028
2017-03-06T08:47:30.830Z,5128
2017-03-06T08:48:11.386Z,5208
2017-03-06T08:48:52.019Z,5148
2017-03-06T08:49:32.601Z,5188
2017-03-06T08:50:13.267Z,5484
2017-03-06T08:50:53.829Z,5360
2017-03-06T08:51:34.408Z,5552
2017-03-06T08:52:15.013Z,5832
2017-03-06T08:52:55.670Z,6068
2017-03-06T08:53:36.244Z,6228
2017-03-06T08:54:16.875Z,6388
2017-03-06T08:54:57.525Z,6556
2017-03-06T08:55:38.090Z,6676
2017-03-06T08:56:18.728Z,6856
2017-03-06T08:56:59.377Z,7044
2017-03-06T08:57:40.027Z,7188
2017-03-06T08:58:20.682Z,7316
2017-03-06T08:59:01.340Z,7316
2017-03-06T08:59:42.013Z,7200
2017-03-06T09:00:22.639Z,6916
2017-03-06T09:01:03.308Z,6300
2017-03-06T09:01:43.946Z,5580
2017-03-06T09:02:24.599Z,4924
2017-03-06T09:03:05.265Z,4320
2017-03-06T09:03:45.915Z,3844
2017-03-06T09:04:26.519Z,3520
2017-03-06T09:05:07.159Z,3336
2017-03-06T09:05:47.788Z,3252
2017-03-06T09:06:28.412Z,3268
2017-03-06T09:07:08.992Z,3416
2017-03-06T09:07:49.595Z,3620
2017-03-06T09:08:30.276Z,3788
2017-03-06T09:09:10.928Z,4052
2017-03-06T09:09:51.576Z,4256
2017-03-06T09:10:32.227Z,4416
2017-03-06T09:11:12.905Z,4696
2017-03-06T09:11:53.535Z,5108
2017-03-06T09:12:34.106Z,5340
2017-03-06T09:13:14.739Z,5264
2017-03-06T09:13:55.299Z,5508
2017-03-06T09:14:35.940Z,5808
2017-03-06T09:15:16.604Z,6028
2017-03-06T09:15:57.141Z,6148
2017-03-06T09:16:37.793Z,6216
2017-03-06T09:17:18.460Z,6164
2017-03-06T09:17:59.036Z,6180
2017-03-06T09:18:40.685Z,6272
2017-03-06T09:19:21.332Z,6436
2017-03-06T09:20:01.910Z,6624
2017-03-06T09:20:42.486Z,6816
2017-03-06T09:21:23.082Z,6868
2017-03-06T09:22:03.737Z,6996
2017-03-06T09:22:44.314Z,6932
2017-03-06T09:23:24.893Z,6796
2017-03-06T09:24:05.513Z,6592
2017-03-06T09:24:46.150Z,6492
2017-03-06T09:25:26.794Z,5876
2017-03-06T09:26:07.442Z,5060
2017-03-06T09:26:48.122Z,4556
2017-03-06T09:27:28.751Z,4600
2017-03-06T09:28:09.413Z,4824
2017-03-06T09:28:50.051Z,4752
2017-03-06T09:29:30.716Z,4356
2017-03-06T09:30:11.263Z,4068
2017-03-06T09:30:51.877Z,3728
2017-03-06T09:31:32.470Z,3592
2017-03-06T09:32:13.120Z,3944
2017-03-06T09:32:53.652Z,4472
2017-03-06T09:33:34.285Z,4896
2017-03-06T09:34:14.879Z,5164
2017-03-06T09:34:55.541Z,5252
2017-03-06T09:35:36.137Z,5296
2017-03-06T09:36:16.783Z,5152
2017-03-06T09:36:57.384Z,4560
2017-03-06T09:37:39.068Z,3904
2017-03-06T09:38:19.604Z,3484
2017-03-06T09:39:00.218Z,3436
2017-03-06T09:39:40.815Z,3756
2017-03-06T09:40:21.469Z,4200
2017-03-06T09:41:02.016Z,4604
2017-03-06T09:41:42.612Z,4636
2017-03-06T09:42:23.218Z,4576